sensor_id;sensor_type;location;lat;lon;timestamp;temperature;humidity
23079;DHT22;11707;50.830;4.364;2022-07-24T00:00:06;20.80;99.90
23079;DHT22;11707;50.830;4.364;2022-07-24T00:02:33;20.80;99.90
23079;DHT22;11707;50.830;4.364;2022-07-24T00:04:59;20.70;99.90
23079;DHT22;11707;50.830;4.364;2022-07-24T00:07:27;20.70;99.90
23079;DHT22;11707;50.830;4.364;2022-07-24T00:09:53;20.70;99.90
23079;DHT22;11707;50.830;4.364;2022-07-24T00:12:19;20.70;99.90
23079;DHT22;11707;50.830;4.364;2022-07-24T00:14:46;20.70;99.90
23079;DHT22;11707;50.830;4.364;2022-07-24T00:17:11;20.70;99.90
23079;DHT22;11707;50.830;4.364;2022-07-24T00:19:37;20.70;99.90
23079;DHT22;11707;50.830;4.364;2022-07-24T00:22:03;20.60;99.90
23079;DHT22;11707;50.830;4.364;2022-07-24T00:24:29;20.60;99.90
23079;DHT22;11707;50.830;4.364;2022-07-24T00:26:55;20.70;99.90
23079;DHT22;11707;50.830;4.364;2022-07-24T00:29:20;20.60;99.90
23079;DHT22;11707;50.830;4.364;2022-07-24T00:31:46;20.60;99.90
23079;DHT22;11707;50.830;4.364;2022-07-24T00:34:12;20.70;99.90
23079;DHT22;11707;50.830;4.364;2022-07-24T00:36:37;20.70;99.90
23079;DHT22;11707;50.830;4.364;2022-07-24T00:39:03;20.50;99.90
23079;DHT22;11707;50.830;4.364;2022-07-24T00:41:29;20.40;99.90
23079;DHT22;11707;50.830;4.364;2022-07-24T00:44:14;20.40;99.90
23079;DHT22;11707;50.830;4.364;2022-07-24T00:46:42;20.20;99.90
23079;DHT22;11707;50.830;4.364;2022-07-24T00:49:10;20.10;99.90
23079;DHT22;11707;50.830;4.364;2022-07-24T00:51:36;20.10;99.90
23079;DHT22;11707;50.830;4.364;2022-07-24T00:54:06;20.00;99.90
23079;DHT22;11707;50.830;4.364;2022-07-24T00:56:32;19.90;99.90
23079;DHT22;11707;50.830;4.364;2022-07-24T00:58:59;19.90;99.90
23079;DHT22;11707;50.830;4.364;2022-07-24T01:01:25;19.90;99.90
23079;DHT22;11707;50.830;4.364;2022-07-24T01:03:51;19.80;99.90
23079;DHT22;11707;50.830;4.364;2022-07-24T01:06:16;19.80;99.90
23079;DHT22;11707;50.830;4.364;2022-07-24T01:08:42;19.80;99.90
23079;DHT22;11707;50.830;4.364;2022-07-24T01:11:11;19.80;99.90
23079;DHT22;11707;50.830;4.364;2022-07-24T01:13:37;19.70;99.90
23079;DHT22;11707;50.830;4.364;2022-07-24T01:16:04;19.80;99.90
23079;DHT22;11707;50.830;4.364;2022-07-24T01:18:29;19.70;99.90
23079;DHT22;11707;50.830;4.364;2022-07-24T01:20:55;19.80;99.90
23079;DHT22;11707;50.830;4.364;2022-07-24T01:23:22;19.80;99.90
23079;DHT22;11707;50.830;4.364;2022-07-24T01:25:48;19.70;99.90
23079;DHT22;11707;50.830;4.364;2022-07-24T01:28:14;19.60;99.90
23079;DHT22;11707;50.830;4.364;2022-07-24T01:30:40;19.50;99.90
23079;DHT22;11707;50.830;4.364;2022-07-24T01:33:05;19.50;99.90
23079;DHT22;11707;50.830;4.364;2022-07-24T01:35:31;19.60;99.90
23079;DHT22;11707;50.830;4.364;2022-07-24T01:37:57;19.50;99.90
23079;DHT22;11707;50.830;4.364;2022-07-24T01:40:23;19.50;99.90
23079;DHT22;11707;50.830;4.364;2022-07-24T01:42:48;19.50;99.90
23079;DHT22;11707;50.830;4.364;2022-07-24T01:45:14;19.50;99.90
23079;DHT22;11707;50.830;4.364;2022-07-24T01:47:41;19.50;99.90
23079;DHT22;11707;50.830;4.364;2022-07-24T01:50:07;19.50;99.90
23079;DHT22;11707;50.830;4.364;2022-07-24T01:52:32;19.50;99.90
23079;DHT22;11707;50.830;4.364;2022-07-24T01:54:58;19.50;99.90
23079;DHT22;11707;50.830;4.364;2022-07-24T01:57:24;19.50;99.90
23079;DHT22;11707;50.830;4.364;2022-07-24T01:59:49;19.60;99.90
23079;DHT22;11707;50.830;4.364;2022-07-24T02:02:15;19.50;99.90
23079;DHT22;11707;50.830;4.364;2022-07-24T02:04:41;19.60;99.90
23079;DHT22;11707;50.830;4.364;2022-07-24T02:07:07;19.60;99.90
23079;DHT22;11707;50.830;4.364;2022-07-24T02:09:33;19.60;99.90
23079;DHT22;11707;50.830;4.364;2022-07-24T02:11:58;19.60;99.90
23079;DHT22;11707;50.830;4.364;2022-07-24T02:14:24;19.60;99.90
23079;DHT22;11707;50.830;4.364;2022-07-24T02:16:49;19.60;99.90
23079;DHT22;11707;50.830;4.364;2022-07-24T02:19:15;19.60;99.90
23079;DHT22;11707;50.830;4.364;2022-07-24T02:21:41;19.40;99.90
23079;DHT22;11707;50.830;4.364;2022-07-24T02:24:07;19.30;99.90
23079;DHT22;11707;50.830;4.364;2022-07-24T02:26:33;19.30;99.90
23079;DHT22;11707;50.830;4.364;2022-07-24T02:28:58;19.20;99.90
23079;DHT22;11707;50.830;4.364;2022-07-24T02:31:24;19.10;99.90
23079;DHT22;11707;50.830;4.364;2022-07-24T02:33:50;19.10;99.90
23079;DHT22;11707;50.830;4.364;2022-07-24T02:36:15;19.10;99.90
23079;DHT22;11707;50.830;4.364;2022-07-24T02:38:41;19.20;99.90
23079;DHT22;11707;50.830;4.364;2022-07-24T02:41:07;19.20;99.90
23079;DHT22;11707;50.830;4.364;2022-07-24T02:43:33;19.40;99.90
23079;DHT22;11707;50.830;4.364;2022-07-24T02:45:59;19.50;99.90
23079;DHT22;11707;50.830;4.364;2022-07-24T02:48:25;19.60;99.90
23079;DHT22;11707;50.830;4.364;2022-07-24T02:50:51;19.40;99.90
23079;DHT22;11707;50.830;4.364;2022-07-24T02:53:17;19.30;99.90
23079;DHT22;11707;50.830;4.364;2022-07-24T02:55:43;19.00;99.90
23079;DHT22;11707;50.830;4.364;2022-07-24T02:58:09;18.90;99.90
23079;DHT22;11707;50.830;4.364;2022-07-24T03:00:35;19.00;99.90
23079;DHT22;11707;50.830;4.364;2022-07-24T03:03:01;19.10;99.90
23079;DHT22;11707;50.830;4.364;2022-07-24T03:05:27;19.30;99.90
23079;DHT22;11707;50.830;4.364;2022-07-24T03:07:52;19.10;99.90
23079;DHT22;11707;50.830;4.364;2022-07-24T03:10:18;19.00;99.90
23079;DHT22;11707;50.830;4.364;2022-07-24T03:12:44;19.00;99.90
23079;DHT22;11707;50.830;4.364;2022-07-24T03:15:12;18.90;99.90
23079;DHT22;11707;50.830;4.364;2022-07-24T03:17:37;18.90;99.90
23079;DHT22;11707;50.830;4.364;2022-07-24T03:20:04;18.90;99.90
23079;DHT22;11707;50.830;4.364;2022-07-24T03:22:30;18.80;99.90
23079;DHT22;11707;50.830;4.364;2022-07-24T03:24:55;18.80;99.90
23079;DHT22;11707;50.830;4.364;2022-07-24T03:27:21;18.90;99.90
23079;DHT22;11707;50.830;4.364;2022-07-24T03:29:47;19.00;99.90
23079;DHT22;11707;50.830;4.364;2022-07-24T03:32:12;19.10;99.90
23079;DHT22;11707;50.830;4.364;2022-07-24T03:34:38;19.20;99.90
23079;DHT22;11707;50.830;4.364;2022-07-24T03:37:04;19.20;99.90
23079;DHT22;11707;50.830;4.364;2022-07-24T03:39:29;19.30;99.90
23079;DHT22;11707;50.830;4.364;2022-07-24T03:41:55;19.30;99.90
23079;DHT22;11707;50.830;4.364;2022-07-24T03:44:21;19.30;99.90
23079;DHT22;11707;50.830;4.364;2022-07-24T03:46:46;19.20;99.90
23079;DHT22;11707;50.830;4.364;2022-07-24T03:49:12;19.00;99.90
23079;DHT22;11707;50.830;4.364;2022-07-24T03:51:38;19.00;99.90
23079;DHT22;11707;50.830;4.364;2022-07-24T03:54:03;19.00;99.90
23079;DHT22;11707;50.830;4.364;2022-07-24T03:56:29;19.00;99.90
23079;DHT22;11707;50.830;4.364;2022-07-24T03:58:55;19.10;99.90
23079;DHT22;11707;50.830;4.364;2022-07-24T04:01:21;19.10;99.90
23079;DHT22;11707;50.830;4.364;2022-07-24T04:03:47;18.90;99.90
23079;DHT22;11707;50.830;4.364;2022-07-24T04:06:13;18.90;99.90
23079;DHT22;11707;50.830;4.364;2022-07-24T04:08:39;19.00;99.90
23079;DHT22;11707;50.830;4.364;2022-07-24T04:11:05;19.00;99.90
23079;DHT22;11707;50.830;4.364;2022-07-24T04:13:33;19.10;99.90
23079;DHT22;11707;50.830;4.364;2022-07-24T04:15:59;19.30;99.90
23079;DHT22;11707;50.830;4.364;2022-07-24T04:18:25;19.30;99.90
23079;DHT22;11707;50.830;4.364;2022-07-24T04:20:51;19.20;99.90
23079;DHT22;11707;50.830;4.364;2022-07-24T04:23:17;19.20;99.90
23079;DHT22;11707;50.830;4.364;2022-07-24T04:25:42;19.20;99.90
23079;DHT22;11707;50.830;4.364;2022-07-24T04:28:08;19.10;99.90
23079;DHT22;11707;50.830;4.364;2022-07-24T04:30:34;18.80;99.90
23079;DHT22;11707;50.830;4.364;2022-07-24T04:33:00;18.90;99.90
23079;DHT22;11707;50.830;4.364;2022-07-24T04:35:25;18.90;99.90
23079;DHT22;11707;50.830;4.364;2022-07-24T04:37:51;18.80;99.90
23079;DHT22;11707;50.830;4.364;2022-07-24T04:40:17;18.90;99.90
23079;DHT22;11707;50.830;4.364;2022-07-24T04:42:43;19.00;99.90
23079;DHT22;11707;50.830;4.364;2022-07-24T04:45:09;18.90;99.90
23079;DHT22;11707;50.830;4.364;2022-07-24T04:47:36;18.70;99.90
23079;DHT22;11707;50.830;4.364;2022-07-24T04:50:03;18.60;99.90
23079;DHT22;11707;50.830;4.364;2022-07-24T04:52:29;18.60;99.90
23079;DHT22;11707;50.830;4.364;2022-07-24T04:54:55;18.90;99.90
23079;DHT22;11707;50.830;4.364;2022-07-24T04:57:21;19.00;99.90
23079;DHT22;11707;50.830;4.364;2022-07-24T04:59:46;18.90;99.90
23079;DHT22;11707;50.830;4.364;2022-07-24T05:02:12;18.90;99.90
23079;DHT22;11707;50.830;4.364;2022-07-24T05:04:38;18.80;99.90
23079;DHT22;11707;50.830;4.364;2022-07-24T05:07:03;18.90;99.90
23079;DHT22;11707;50.830;4.364;2022-07-24T05:09:29;18.80;99.90
23079;DHT22;11707;50.830;4.364;2022-07-24T05:11:55;18.70;99.90
23079;DHT22;11707;50.830;4.364;2022-07-24T05:14:21;18.60;99.90
23079;DHT22;11707;50.830;4.364;2022-07-24T05:16:47;18.80;99.90
23079;DHT22;11707;50.830;4.364;2022-07-24T05:19:12;19.00;99.90
23079;DHT22;11707;50.830;4.364;2022-07-24T05:21:38;19.20;99.90
23079;DHT22;11707;50.830;4.364;2022-07-24T05:24:04;19.40;99.90
23079;DHT22;11707;50.830;4.364;2022-07-24T05:26:30;19.60;99.90
23079;DHT22;11707;50.830;4.364;2022-07-24T05:29:00;19.50;99.90
23079;DHT22;11707;50.830;4.364;2022-07-24T05:31:25;19.60;99.90
23079;DHT22;11707;50.830;4.364;2022-07-24T05:33:52;19.50;99.90
23079;DHT22;11707;50.830;4.364;2022-07-24T05:36:18;19.60;99.90
23079;DHT22;11707;50.830;4.364;2022-07-24T05:38:44;19.70;99.90
23079;DHT22;11707;50.830;4.364;2022-07-24T05:41:11;19.80;99.90
23079;DHT22;11707;50.830;4.364;2022-07-24T05:43:37;19.90;99.90
23079;DHT22;11707;50.830;4.364;2022-07-24T05:46:04;20.00;99.90
23079;DHT22;11707;50.830;4.364;2022-07-24T05:48:30;19.90;99.90
23079;DHT22;11707;50.830;4.364;2022-07-24T05:50:55;19.90;99.90
23079;DHT22;11707;50.830;4.364;2022-07-24T05:53:22;20.10;99.90
23079;DHT22;11707;50.830;4.364;2022-07-24T05:55:48;20.10;99.90
23079;DHT22;11707;50.830;4.364;2022-07-24T05:58:14;20.20;99.90
23079;DHT22;11707;50.830;4.364;2022-07-24T06:00:40;20.20;99.90
23079;DHT22;11707;50.830;4.364;2022-07-24T06:03:05;20.30;99.90
23079;DHT22;11707;50.830;4.364;2022-07-24T06:05:31;20.30;99.90
23079;DHT22;11707;50.830;4.364;2022-07-24T06:07:57;20.30;99.90
23079;DHT22;11707;50.830;4.364;2022-07-24T06:10:22;20.30;99.90
23079;DHT22;11707;50.830;4.364;2022-07-24T06:12:48;20.20;99.90
23079;DHT22;11707;50.830;4.364;2022-07-24T06:15:14;20.30;99.90
23079;DHT22;11707;50.830;4.364;2022-07-24T06:17:40;20.50;99.90
23079;DHT22;11707;50.830;4.364;2022-07-24T06:20:06;20.70;99.90
23079;DHT22;11707;50.830;4.364;2022-07-24T06:22:34;20.90;99.90
23079;DHT22;11707;50.830;4.364;2022-07-24T06:24:59;21.00;99.90
23079;DHT22;11707;50.830;4.364;2022-07-24T06:27:25;21.20;99.90
23079;DHT22;11707;50.830;4.364;2022-07-24T06:29:51;21.30;99.90
23079;DHT22;11707;50.830;4.364;2022-07-24T06:32:17;21.00;99.90
23079;DHT22;11707;50.830;4.364;2022-07-24T06:34:43;21.10;99.90
23079;DHT22;11707;50.830;4.364;2022-07-24T06:37:09;21.20;99.90
23079;DHT22;11707;50.830;4.364;2022-07-24T06:39:35;21.20;99.90
23079;DHT22;11707;50.830;4.364;2022-07-24T06:42:00;21.10;99.90
23079;DHT22;11707;50.830;4.364;2022-07-24T06:44:26;21.30;99.90
23079;DHT22;11707;50.830;4.364;2022-07-24T06:46:52;21.20;99.90
23079;DHT22;11707;50.830;4.364;2022-07-24T06:49:18;21.10;99.90
23079;DHT22;11707;50.830;4.364;2022-07-24T06:51:43;21.10;99.90
23079;DHT22;11707;50.830;4.364;2022-07-24T06:54:09;21.10;99.90
23079;DHT22;11707;50.830;4.364;2022-07-24T06:56:35;21.10;99.90
23079;DHT22;11707;50.830;4.364;2022-07-24T06:59:01;21.30;99.90
23079;DHT22;11707;50.830;4.364;2022-07-24T07:01:27;21.60;99.90
23079;DHT22;11707;50.830;4.364;2022-07-24T07:03:56;21.90;99.90
23079;DHT22;11707;50.830;4.364;2022-07-24T07:06:21;21.90;99.90
23079;DHT22;11707;50.830;4.364;2022-07-24T07:08:47;22.10;99.90
23079;DHT22;11707;50.830;4.364;2022-07-24T07:11:13;22.40;99.90
23079;DHT22;11707;50.830;4.364;2022-07-24T07:13:39;22.60;99.90
23079;DHT22;11707;50.830;4.364;2022-07-24T07:16:05;22.60;99.90
23079;DHT22;11707;50.830;4.364;2022-07-24T07:18:30;22.50;99.90
23079;DHT22;11707;50.830;4.364;2022-07-24T07:20:56;22.50;99.90
23079;DHT22;11707;50.830;4.364;2022-07-24T07:23:23;22.60;99.90
23079;DHT22;11707;50.830;4.364;2022-07-24T07:25:49;22.60;99.90
23079;DHT22;11707;50.830;4.364;2022-07-24T07:28:15;22.70;99.90
23079;DHT22;11707;50.830;4.364;2022-07-24T07:30:45;22.60;99.90
23079;DHT22;11707;50.830;4.364;2022-07-24T07:33:10;22.70;99.90
23079;DHT22;11707;50.830;4.364;2022-07-24T07:35:36;22.90;99.90
23079;DHT22;11707;50.830;4.364;2022-07-24T07:38:02;23.10;99.90
23079;DHT22;11707;50.830;4.364;2022-07-24T07:40:28;23.20;99.90
23079;DHT22;11707;50.830;4.364;2022-07-24T07:42:53;23.10;99.90
23079;DHT22;11707;50.830;4.364;2022-07-24T07:45:19;22.90;99.90
23079;DHT22;11707;50.830;4.364;2022-07-24T07:47:44;23.10;99.90
23079;DHT22;11707;50.830;4.364;2022-07-24T07:50:11;22.90;99.90
23079;DHT22;11707;50.830;4.364;2022-07-24T07:52:37;23.00;99.90
23079;DHT22;11707;50.830;4.364;2022-07-24T07:55:04;23.30;99.90
23079;DHT22;11707;50.830;4.364;2022-07-24T07:57:30;23.40;99.90
23079;DHT22;11707;50.830;4.364;2022-07-24T07:59:56;23.40;99.90
23079;DHT22;11707;50.830;4.364;2022-07-24T08:02:22;23.40;99.90
23079;DHT22;11707;50.830;4.364;2022-07-24T08:04:47;23.70;99.90
23079;DHT22;11707;50.830;4.364;2022-07-24T08:07:13;23.80;99.90
23079;DHT22;11707;50.830;4.364;2022-07-24T08:09:39;23.90;99.90
23079;DHT22;11707;50.830;4.364;2022-07-24T08:12:05;23.80;99.90
23079;DHT22;11707;50.830;4.364;2022-07-24T08:14:33;23.80;99.90
23079;DHT22;11707;50.830;4.364;2022-07-24T08:16:59;23.90;99.90
23079;DHT22;11707;50.830;4.364;2022-07-24T08:19:25;23.80;99.90
23079;DHT22;11707;50.830;4.364;2022-07-24T08:21:51;23.80;99.90
23079;DHT22;11707;50.830;4.364;2022-07-24T08:24:16;23.90;99.90
23079;DHT22;11707;50.830;4.364;2022-07-24T08:26:48;23.80;99.90
23079;DHT22;11707;50.830;4.364;2022-07-24T08:29:14;24.10;99.90
23079;DHT22;11707;50.830;4.364;2022-07-24T08:31:40;24.20;99.90
23079;DHT22;11707;50.830;4.364;2022-07-24T08:34:06;24.40;99.90
23079;DHT22;11707;50.830;4.364;2022-07-24T08:36:31;24.70;99.90
23079;DHT22;11707;50.830;4.364;2022-07-24T08:38:57;24.80;99.90
23079;DHT22;11707;50.830;4.364;2022-07-24T08:41:23;24.90;99.90
23079;DHT22;11707;50.830;4.364;2022-07-24T08:43:49;24.80;99.90
23079;DHT22;11707;50.830;4.364;2022-07-24T08:46:15;25.00;99.90
23079;DHT22;11707;50.830;4.364;2022-07-24T08:48:45;25.00;99.90
23079;DHT22;11707;50.830;4.364;2022-07-24T08:51:14;25.00;99.90
23079;DHT22;11707;50.830;4.364;2022-07-24T08:53:40;25.10;99.90
23079;DHT22;11707;50.830;4.364;2022-07-24T08:56:08;25.30;99.90
23079;DHT22;11707;50.830;4.364;2022-07-24T08:58:39;25.40;99.90
23079;DHT22;11707;50.830;4.364;2022-07-24T09:01:05;25.50;99.90
23079;DHT22;11707;50.830;4.364;2022-07-24T09:03:44;25.20;99.90
23079;DHT22;11707;50.830;4.364;2022-07-24T09:06:11;25.30;99.90
23079;DHT22;11707;50.830;4.364;2022-07-24T09:08:39;25.40;99.90
23079;DHT22;11707;50.830;4.364;2022-07-24T09:11:05;25.60;99.90
23079;DHT22;11707;50.830;4.364;2022-07-24T09:13:33;25.60;99.90
23079;DHT22;11707;50.830;4.364;2022-07-24T09:16:22;25.50;99.90
23079;DHT22;11707;50.830;4.364;2022-07-24T09:18:51;25.60;99.90
23079;DHT22;11707;50.830;4.364;2022-07-24T09:21:26;25.80;99.90
23079;DHT22;11707;50.830;4.364;2022-07-24T09:23:52;25.90;99.90
23079;DHT22;11707;50.830;4.364;2022-07-24T09:26:18;25.80;99.90
23079;DHT22;11707;50.830;4.364;2022-07-24T09:28:54;26.00;99.90
23079;DHT22;11707;50.830;4.364;2022-07-24T09:31:20;26.30;99.90
23079;DHT22;11707;50.830;4.364;2022-07-24T09:33:50;26.30;99.90
23079;DHT22;11707;50.830;4.364;2022-07-24T09:36:17;26.10;99.90
23079;DHT22;11707;50.830;4.364;2022-07-24T09:38:48;26.10;99.90
23079;DHT22;11707;50.830;4.364;2022-07-24T09:41:22;26.20;99.90
23079;DHT22;11707;50.830;4.364;2022-07-24T09:43:59;26.50;99.90
23079;DHT22;11707;50.830;4.364;2022-07-24T09:46:26;26.50;99.90
23079;DHT22;11707;50.830;4.364;2022-07-24T09:48:57;26.30;99.90
23079;DHT22;11707;50.830;4.364;2022-07-24T09:51:25;26.40;99.90
23079;DHT22;11707;50.830;4.364;2022-07-24T09:53:57;26.30;99.90
23079;DHT22;11707;50.830;4.364;2022-07-24T09:56:23;26.40;99.90
23079;DHT22;11707;50.830;4.364;2022-07-24T09:58:51;26.60;99.90
23079;DHT22;11707;50.830;4.364;2022-07-24T10:01:21;26.70;99.90
23079;DHT22;11707;50.830;4.364;2022-07-24T10:03:48;26.70;99.90
23079;DHT22;11707;50.830;4.364;2022-07-24T10:06:17;26.70;99.90
23079;DHT22;11707;50.830;4.364;2022-07-24T10:08:45;26.90;99.90
23079;DHT22;11707;50.830;4.364;2022-07-24T10:11:14;26.70;99.90
23079;DHT22;11707;50.830;4.364;2022-07-24T10:13:40;26.60;99.90
23079;DHT22;11707;50.830;4.364;2022-07-24T10:18:48;27.00;99.90
23079;DHT22;11707;50.830;4.364;2022-07-24T10:21:34;27.10;99.90
23079;DHT22;11707;50.830;4.364;2022-07-24T10:29:07;27.20;99.90
23079;DHT22;11707;50.830;4.364;2022-07-24T10:31:41;27.10;99.90
23079;DHT22;11707;50.830;4.364;2022-07-24T10:34:31;27.30;99.90
23079;DHT22;11707;50.830;4.364;2022-07-24T10:40:30;27.30;99.90
23079;DHT22;11707;50.830;4.364;2022-07-24T10:45:36;27.40;99.80
23079;DHT22;11707;50.830;4.364;2022-07-24T10:56:24;27.20;99.70
23079;DHT22;11707;50.830;4.364;2022-07-24T10:59:09;27.20;99.60
23079;DHT22;11707;50.830;4.364;2022-07-24T11:01:48;27.10;99.90
23079;DHT22;11707;50.830;4.364;2022-07-24T11:07:09;27.40;99.60
23079;DHT22;11707;50.830;4.364;2022-07-24T11:12:27;27.50;99.60
23079;DHT22;11707;50.830;4.364;2022-07-24T11:15:01;27.50;99.70
23079;DHT22;11707;50.830;4.364;2022-07-24T11:17:46;27.50;99.80
23079;DHT22;11707;50.830;4.364;2022-07-24T11:20:21;27.70;99.70
23079;DHT22;11707;50.830;4.364;2022-07-24T11:22:51;27.90;99.30
23079;DHT22;11707;50.830;4.364;2022-07-24T11:25:28;27.90;98.90
23079;DHT22;11707;50.830;4.364;2022-07-24T11:28:12;27.80;99.20
23079;DHT22;11707;50.830;4.364;2022-07-24T11:30:44;27.90;99.30
23079;DHT22;11707;50.830;4.364;2022-07-24T11:33:11;27.90;99.30
23079;DHT22;11707;50.830;4.364;2022-07-24T11:35:37;27.90;99.10
23079;DHT22;11707;50.830;4.364;2022-07-24T11:38:05;27.90;99.20
23079;DHT22;11707;50.830;4.364;2022-07-24T11:40:32;27.90;99.20
23079;DHT22;11707;50.830;4.364;2022-07-24T11:43:00;28.20;99.10
23079;DHT22;11707;50.830;4.364;2022-07-24T11:45:26;28.50;98.50
23079;DHT22;11707;50.830;4.364;2022-07-24T11:47:53;28.70;98.20
23079;DHT22;11707;50.830;4.364;2022-07-24T11:50:23;28.60;98.40
23079;DHT22;11707;50.830;4.364;2022-07-24T11:52:50;28.70;98.20
23079;DHT22;11707;50.830;4.364;2022-07-24T11:55:19;28.80;98.00
23079;DHT22;11707;50.830;4.364;2022-07-24T11:57:50;28.80;97.90
23079;DHT22;11707;50.830;4.364;2022-07-24T12:00:26;28.80;97.90
23079;DHT22;11707;50.830;4.364;2022-07-24T12:02:57;28.60;98.40
23079;DHT22;11707;50.830;4.364;2022-07-24T12:05:38;28.80;98.10
23079;DHT22;11707;50.830;4.364;2022-07-24T12:08:16;28.90;97.90
23079;DHT22;11707;50.830;4.364;2022-07-24T12:10:41;29.00;97.80
23079;DHT22;11707;50.830;4.364;2022-07-24T12:13:07;29.00;98.00
23079;DHT22;11707;50.830;4.364;2022-07-24T12:15:38;28.90;98.10
23079;DHT22;11707;50.830;4.364;2022-07-24T12:18:05;28.80;98.10
23079;DHT22;11707;50.830;4.364;2022-07-24T12:20:37;28.80;98.10
23079;DHT22;11707;50.830;4.364;2022-07-24T12:23:05;28.80;98.10
23079;DHT22;11707;50.830;4.364;2022-07-24T12:25:31;28.80;98.50
23079;DHT22;11707;50.830;4.364;2022-07-24T12:30:37;29.10;97.80
23079;DHT22;11707;50.830;4.364;2022-07-24T12:33:09;29.20;97.80
23079;DHT22;11707;50.830;4.364;2022-07-24T12:38:55;29.50;97.00
23079;DHT22;11707;50.830;4.364;2022-07-24T12:41:22;29.40;97.20
23079;DHT22;11707;50.830;4.364;2022-07-24T12:46:15;29.20;97.30
23079;DHT22;11707;50.830;4.364;2022-07-24T12:48:56;29.30;97.00
23079;DHT22;11707;50.830;4.364;2022-07-24T12:51:21;29.50;96.60
23079;DHT22;11707;50.830;4.364;2022-07-24T12:53:53;29.90;96.20
23079;DHT22;11707;50.830;4.364;2022-07-24T12:56:19;30.90;95.10
23079;DHT22;11707;50.830;4.364;2022-07-24T12:58:55;32.40;93.20
23079;DHT22;11707;50.830;4.364;2022-07-24T13:01:22;34.20;90.60
23079;DHT22;11707;50.830;4.364;2022-07-24T13:03:57;35.30;84.70
23079;DHT22;11707;50.830;4.364;2022-07-24T13:06:51;34.70;85.00
23079;DHT22;11707;50.830;4.364;2022-07-24T13:09:19;36.50;77.40
23079;DHT22;11707;50.830;4.364;2022-07-24T13:11:46;37.40;72.80
23079;DHT22;11707;50.830;4.364;2022-07-24T13:14:13;38.00;68.10
23079;DHT22;11707;50.830;4.364;2022-07-24T13:16:42;38.10;65.30
23079;DHT22;11707;50.830;4.364;2022-07-24T13:19:08;38.20;62.20
23079;DHT22;11707;50.830;4.364;2022-07-24T13:21:35;37.80;62.30
23079;DHT22;11707;50.830;4.364;2022-07-24T13:24:03;38.00;60.00
23079;DHT22;11707;50.830;4.364;2022-07-24T13:26:29;36.50;62.60
23079;DHT22;11707;50.830;4.364;2022-07-24T13:28:54;37.10;61.90
23079;DHT22;11707;50.830;4.364;2022-07-24T13:31:20;37.50;60.30
23079;DHT22;11707;50.830;4.364;2022-07-24T13:33:47;37.70;58.80
23079;DHT22;11707;50.830;4.364;2022-07-24T13:36:14;38.50;58.10
23079;DHT22;11707;50.830;4.364;2022-07-24T13:38:40;38.20;57.80
23079;DHT22;11707;50.830;4.364;2022-07-24T13:41:05;38.10;58.20
23079;DHT22;11707;50.830;4.364;2022-07-24T13:43:31;37.60;57.90
23079;DHT22;11707;50.830;4.364;2022-07-24T13:45:57;37.10;58.50
23079;DHT22;11707;50.830;4.364;2022-07-24T13:48:23;37.40;58.00
23079;DHT22;11707;50.830;4.364;2022-07-24T13:50:49;38.60;57.40
23079;DHT22;11707;50.830;4.364;2022-07-24T13:53:15;37.50;57.30
23079;DHT22;11707;50.830;4.364;2022-07-24T13:55:40;37.80;57.70
23079;DHT22;11707;50.830;4.364;2022-07-24T13:58:06;38.90;55.70
23079;DHT22;11707;50.830;4.364;2022-07-24T14:00:32;39.30;54.80
23079;DHT22;11707;50.830;4.364;2022-07-24T14:02:58;39.70;53.80
23079;DHT22;11707;50.830;4.364;2022-07-24T14:05:27;39.40;53.50
23079;DHT22;11707;50.830;4.364;2022-07-24T14:07:53;39.80;52.80
23079;DHT22;11707;50.830;4.364;2022-07-24T14:10:20;39.00;52.50
23079;DHT22;11707;50.830;4.364;2022-07-24T14:12:46;38.90;53.10
23079;DHT22;11707;50.830;4.364;2022-07-24T14:15:12;38.50;53.60
23079;DHT22;11707;50.830;4.364;2022-07-24T14:17:39;38.20;53.50
23079;DHT22;11707;50.830;4.364;2022-07-24T14:20:05;38.90;52.50
23079;DHT22;11707;50.830;4.364;2022-07-24T14:22:33;38.40;53.60
23079;DHT22;11707;50.830;4.364;2022-07-24T14:24:59;39.40;52.20
23079;DHT22;11707;50.830;4.364;2022-07-24T14:27:25;39.00;51.60
23079;DHT22;11707;50.830;4.364;2022-07-24T14:29:51;39.50;51.30
23079;DHT22;11707;50.830;4.364;2022-07-24T14:32:17;39.60;50.30
23079;DHT22;11707;50.830;4.364;2022-07-24T14:34:42;38.70;50.90
23079;DHT22;11707;50.830;4.364;2022-07-24T14:37:08;37.90;52.30
23079;DHT22;11707;50.830;4.364;2022-07-24T14:39:34;37.70;53.40
23079;DHT22;11707;50.830;4.364;2022-07-24T14:42:00;38.80;51.50
23079;DHT22;11707;50.830;4.364;2022-07-24T14:44:25;38.70;51.30
23079;DHT22;11707;50.830;4.364;2022-07-24T14:46:51;39.20;50.90
23079;DHT22;11707;50.830;4.364;2022-07-24T14:49:17;39.00;50.20
23079;DHT22;11707;50.830;4.364;2022-07-24T14:51:42;38.40;50.30
23079;DHT22;11707;50.830;4.364;2022-07-24T14:54:09;38.50;50.80
23079;DHT22;11707;50.830;4.364;2022-07-24T14:56:35;38.00;50.70
23079;DHT22;11707;50.830;4.364;2022-07-24T14:59:02;38.40;51.10
23079;DHT22;11707;50.830;4.364;2022-07-24T15:01:28;38.30;51.00
23079;DHT22;11707;50.830;4.364;2022-07-24T15:03:54;37.90;51.10
23079;DHT22;11707;50.830;4.364;2022-07-24T15:06:20;36.60;52.70
23079;DHT22;11707;50.830;4.364;2022-07-24T15:08:46;37.00;52.70
23079;DHT22;11707;50.830;4.364;2022-07-24T15:11:12;37.40;52.10
23079;DHT22;11707;50.830;4.364;2022-07-24T15:13:38;37.50;51.50
23079;DHT22;11707;50.830;4.364;2022-07-24T15:16:06;36.20;53.50
23079;DHT22;11707;50.830;4.364;2022-07-24T15:18:32;36.90;52.50
23079;DHT22;11707;50.830;4.364;2022-07-24T15:20:59;37.80;51.80
23079;DHT22;11707;50.830;4.364;2022-07-24T15:23:25;37.90;50.60
23079;DHT22;11707;50.830;4.364;2022-07-24T15:25:51;38.40;50.40
23079;DHT22;11707;50.830;4.364;2022-07-24T15:28:17;38.90;49.80
23079;DHT22;11707;50.830;4.364;2022-07-24T15:30:43;37.60;50.20
23079;DHT22;11707;50.830;4.364;2022-07-24T15:33:09;36.70;51.30
23079;DHT22;11707;50.830;4.364;2022-07-24T15:35:34;35.60;53.00
23079;DHT22;11707;50.830;4.364;2022-07-24T15:38:00;34.50;54.80
23079;DHT22;11707;50.830;4.364;2022-07-24T15:40:26;34.10;55.60
23079;DHT22;11707;50.830;4.364;2022-07-24T15:42:57;33.20;56.80
23079;DHT22;11707;50.830;4.364;2022-07-24T15:45:23;32.40;58.50
23079;DHT22;11707;50.830;4.364;2022-07-24T15:47:50;32.20;59.20
23079;DHT22;11707;50.830;4.364;2022-07-24T15:50:17;32.40;58.90
23079;DHT22;11707;50.830;4.364;2022-07-24T15:52:42;32.10;59.50
23079;DHT22;11707;50.830;4.364;2022-07-24T15:55:08;31.80;59.50
23079;DHT22;11707;50.830;4.364;2022-07-24T15:57:34;31.60;60.30
23079;DHT22;11707;50.830;4.364;2022-07-24T16:00:00;31.50;60.90
23079;DHT22;11707;50.830;4.364;2022-07-24T16:02:25;31.00;61.80
23079;DHT22;11707;50.830;4.364;2022-07-24T16:04:52;30.90;62.50